sensor_id;sensor_type;location;lat;lon;timestamp;P1;durP1;ratioP1;P2;durP2;ratioP2
75320;SDS011;68337;52.196;5.660;2023-06-26T00:01:23;10.68;;;9.23;;
75320;SDS011;68337;52.196;5.660;2023-06-26T00:03:49;10.80;;;9.70;;
75320;SDS011;68337;52.196;5.660;2023-06-26T00:06:15;10.50;;;9.48;;
75320;SDS011;68337;52.196;5.660;2023-06-26T00:08:40;10.93;;;9.88;;
75320;SDS011;68337;52.196;5.660;2023-06-26T00:11:06;11.25;;;10.20;;
75320;SDS011;68337;52.196;5.660;2023-06-26T00:13:35;10.70;;;9.70;;
75320;SDS011;68337;52.196;5.660;2023-06-26T00:16:02;11.05;;;10.07;;
75320;SDS011;68337;52.196;5.660;2023-06-26T00:18:28;10.63;;;9.73;;
75320;SDS011;68337;52.196;5.660;2023-06-26T00:20:54;11.38;;;10.07;;
75320;SDS011;68337;52.196;5.660;2023-06-26T00:23:20;11.10;;;9.95;;
75320;SDS011;68337;52.196;5.660;2023-06-26T00:25:46;10.80;;;9.80;;
75320;SDS011;68337;52.196;5.660;2023-06-26T00:28:12;10.63;;;9.65;;
75320;SDS011;68337;52.196;5.660;2023-06-26T00:30:37;10.00;;;9.10;;
75320;SDS011;68337;52.196;5.660;2023-06-26T00:33:03;10.80;;;9.85;;
75320;SDS011;68337;52.196;5.660;2023-06-26T00:35:29;11.73;;;10.13;;
75320;SDS011;68337;52.196;5.660;2023-06-26T00:37:55;10.70;;;9.73;;
75320;SDS011;68337;52.196;5.660;2023-06-26T00:40:20;10.52;;;9.45;;
75320;SDS011;68337;52.196;5.660;2023-06-26T00:42:46;10.52;;;9.43;;
75320;SDS011;68337;52.196;5.660;2023-06-26T00:45:12;9.85;;;8.85;;
75320;SDS011;68337;52.196;5.660;2023-06-26T00:47:38;11.00;;;9.95;;
75320;SDS011;68337;52.196;5.660;2023-06-26T00:50:04;10.75;;;9.77;;
75320;SDS011;68337;52.196;5.660;2023-06-26T00:52:31;11.07;;;9.98;;
75320;SDS011;68337;52.196;5.660;2023-06-26T00:54:57;11.00;;;9.52;;
75320;SDS011;68337;52.196;5.660;2023-06-26T00:57:23;11.40;;;10.20;;
75320;SDS011;68337;52.196;5.660;2023-06-26T00:59:49;11.32;;;10.15;;
75320;SDS011;68337;52.196;5.660;2023-06-26T01:02:15;11.20;;;10.20;;
75320;SDS011;68337;52.196;5.660;2023-06-26T01:04:54;12.40;;;11.27;;
75320;SDS011;68337;52.196;5.660;2023-06-26T01:07:19;12.27;;;11.00;;
75320;SDS011;68337;52.196;5.660;2023-06-26T01:09:47;12.07;;;10.85;;
75320;SDS011;68337;52.196;5.660;2023-06-26T01:12:13;11.40;;;10.38;;
75320;SDS011;68337;52.196;5.660;2023-06-26T01:14:40;12.70;;;11.50;;
75320;SDS011;68337;52.196;5.660;2023-06-26T01:17:06;11.75;;;10.60;;
75320;SDS011;68337;52.196;5.660;2023-06-26T01:19:33;11.73;;;10.73;;
75320;SDS011;68337;52.196;5.660;2023-06-26T01:22:05;12.02;;;10.82;;
75320;SDS011;68337;52.196;5.660;2023-06-26T01:25:03;11.07;;;10.07;;
75320;SDS011;68337;52.196;5.660;2023-06-26T01:27:43;11.63;;;10.52;;
75320;SDS011;68337;52.196;5.660;2023-06-26T01:30:11;12.60;;;11.50;;
75320;SDS011;68337;52.196;5.660;2023-06-26T01:32:37;11.82;;;10.60;;
75320;SDS011;68337;52.196;5.660;2023-06-26T01:35:05;12.43;;;11.07;;
75320;SDS011;68337;52.196;5.660;2023-06-26T01:37:32;11.50;;;10.50;;
75320;SDS011;68337;52.196;5.660;2023-06-26T01:39:58;11.55;;;10.50;;
75320;SDS011;68337;52.196;5.660;2023-06-26T01:42:24;11.52;;;10.50;;
75320;SDS011;68337;52.196;5.660;2023-06-26T01:44:50;12.70;;;11.00;;
75320;SDS011;68337;52.196;5.660;2023-06-26T01:47:19;12.07;;;10.95;;
75320;SDS011;68337;52.196;5.660;2023-06-26T01:49:50;12.77;;;11.57;;
75320;SDS011;68337;52.196;5.660;2023-06-26T01:52:23;13.55;;;12.13;;
75320;SDS011;68337;52.196;5.660;2023-06-26T01:55:03;15.40;;;12.55;;
75320;SDS011;68337;52.196;5.660;2023-06-26T01:57:36;14.90;;;12.77;;
75320;SDS011;68337;52.196;5.660;2023-06-26T02:00:04;13.05;;;11.75;;
75320;SDS011;68337;52.196;5.660;2023-06-26T02:02:31;11.77;;;10.57;;
75320;SDS011;68337;52.196;5.660;2023-06-26T02:04:58;12.52;;;11.10;;
75320;SDS011;68337;52.196;5.660;2023-06-26T02:07:23;13.25;;;11.68;;
75320;SDS011;68337;52.196;5.660;2023-06-26T02:09:49;11.60;;;10.38;;
75320;SDS011;68337;52.196;5.660;2023-06-26T02:12:15;16.13;;;9.93;;
75320;SDS011;68337;52.196;5.660;2023-06-26T02:14:40;12.85;;;9.60;;
75320;SDS011;68337;52.196;5.660;2023-06-26T02:17:06;11.40;;;8.63;;
75320;SDS011;68337;52.196;5.660;2023-06-26T02:19:33;8.55;;;7.65;;
75320;SDS011;68337;52.196;5.660;2023-06-26T02:21:59;8.02;;;7.15;;
75320;SDS011;68337;52.196;5.660;2023-06-26T02:24:25;11.35;;;7.88;;
75320;SDS011;68337;52.196;5.660;2023-06-26T02:26:54;7.97;;;6.93;;
75320;SDS011;68337;52.196;5.660;2023-06-26T02:29:21;9.13;;;7.00;;
75320;SDS011;68337;52.196;5.660;2023-06-26T02:31:47;7.38;;;5.97;;
75320;SDS011;68337;52.196;5.660;2023-06-26T02:34:14;7.38;;;6.28;;
75320;SDS011;68337;52.196;5.660;2023-06-26T02:36:39;11.70;;;6.47;;
75320;SDS011;68337;52.196;5.660;2023-06-26T02:39:05;8.70;;;5.78;;
75320;SDS011;68337;52.196;5.660;2023-06-26T02:41:31;8.48;;;6.07;;
75320;SDS011;68337;52.196;5.660;2023-06-26T02:43:57;11.00;;;6.22;;
75320;SDS011;68337;52.196;5.660;2023-06-26T02:46:22;6.80;;;5.32;;
75320;SDS011;68337;52.196;5.660;2023-06-26T02:48:48;9.05;;;6.38;;
75320;SDS011;68337;52.196;5.660;2023-06-26T02:51:14;10.30;;;6.03;;
75320;SDS011;68337;52.196;5.660;2023-06-26T02:53:40;6.50;;;5.90;;
75320;SDS011;68337;52.196;5.660;2023-06-26T02:56:05;7.85;;;5.55;;
75320;SDS011;68337;52.196;5.660;2023-06-26T02:58:31;6.75;;;5.10;;
75320;SDS011;68337;52.196;5.660;2023-06-26T03:00:57;8.38;;;5.10;;
75320;SDS011;68337;52.196;5.660;2023-06-26T03:03:22;8.32;;;5.22;;
75320;SDS011;68337;52.196;5.660;2023-06-26T03:05:48;9.63;;;5.28;;
75320;SDS011;68337;52.196;5.660;2023-06-26T03:08:14;10.82;;;5.90;;
75320;SDS011;68337;52.196;5.660;2023-06-26T03:10:40;6.82;;;4.53;;
75320;SDS011;68337;52.196;5.660;2023-06-26T03:13:05;9.07;;;5.68;;
75320;SDS011;68337;52.196;5.660;2023-06-26T03:15:31;13.60;;;5.88;;
75320;SDS011;68337;52.196;5.660;2023-06-26T03:17:57;8.60;;;5.50;;
75320;SDS011;68337;52.196;5.660;2023-06-26T03:20:23;9.63;;;5.30;;
75320;SDS011;68337;52.196;5.660;2023-06-26T03:22:48;11.45;;;6.05;;
75320;SDS011;68337;52.196;5.660;2023-06-26T03:25:14;7.68;;;5.55;;
75320;SDS011;68337;52.196;5.660;2023-06-26T03:27:40;9.38;;;5.13;;
75320;SDS011;68337;52.196;5.660;2023-06-26T03:30:06;9.82;;;5.50;;
75320;SDS011;68337;52.196;5.660;2023-06-26T03:32:32;6.95;;;5.60;;
75320;SDS011;68337;52.196;5.660;2023-06-26T03:34:57;9.13;;;5.38;;
75320;SDS011;68337;52.196;5.660;2023-06-26T03:37:23;7.32;;;5.28;;
75320;SDS011;68337;52.196;5.660;2023-06-26T03:39:49;7.80;;;5.30;;
75320;SDS011;68337;52.196;5.660;2023-06-26T03:42:15;12.35;;;6.10;;
75320;SDS011;68337;52.196;5.660;2023-06-26T03:44:40;9.75;;;5.40;;
75320;SDS011;68337;52.196;5.660;2023-06-26T03:47:06;14.98;;;5.18;;
75320;SDS011;68337;52.196;5.660;2023-06-26T03:49:32;10.13;;;5.63;;
75320;SDS011;68337;52.196;5.660;2023-06-26T03:51:57;10.00;;;5.13;;
75320;SDS011;68337;52.196;5.660;2023-06-26T03:54:23;8.77;;;5.40;;
75320;SDS011;68337;52.196;5.660;2023-06-26T03:56:49;18.40;;;6.20;;
75320;SDS011;68337;52.196;5.660;2023-06-26T03:59:15;19.35;;;5.40;;
75320;SDS011;68337;52.196;5.660;2023-06-26T04:01:40;8.65;;;5.43;;
75320;SDS011;68337;52.196;5.660;2023-06-26T04:04:06;14.68;;;5.57;;
75320;SDS011;68337;52.196;5.660;2023-06-26T04:06:32;14.73;;;6.38;;
75320;SDS011;68337;52.196;5.660;2023-06-26T04:08:58;11.55;;;6.53;;
75320;SDS011;68337;52.196;5.660;2023-06-26T04:11:24;19.83;;;5.93;;
75320;SDS011;68337;52.196;5.660;2023-06-26T04:13:50;16.17;;;6.53;;
75320;SDS011;68337;52.196;5.660;2023-06-26T04:16:16;12.10;;;6.38;;
75320;SDS011;68337;52.196;5.660;2023-06-26T04:18:42;16.23;;;6.03;;
75320;SDS011;68337;52.196;5.660;2023-06-26T04:21:08;15.88;;;6.10;;
75320;SDS011;68337;52.196;5.660;2023-06-26T04:23:36;13.20;;;5.47;;
75320;SDS011;68337;52.196;5.660;2023-06-26T04:26:03;12.10;;;5.72;;
75320;SDS011;68337;52.196;5.660;2023-06-26T04:28:30;11.77;;;5.45;;
75320;SDS011;68337;52.196;5.660;2023-06-26T04:30:57;11.82;;;5.30;;
75320;SDS011;68337;52.196;5.660;2023-06-26T04:33:24;21.77;;;6.85;;
75320;SDS011;68337;52.196;5.660;2023-06-26T04:35:50;12.90;;;5.05;;
75320;SDS011;68337;52.196;5.660;2023-06-26T04:38:16;13.80;;;5.60;;
75320;SDS011;68337;52.196;5.660;2023-06-26T04:40:43;9.68;;;5.68;;
75320;SDS011;68337;52.196;5.660;2023-06-26T04:43:09;15.23;;;6.13;;
75320;SDS011;68337;52.196;5.660;2023-06-26T04:45:35;17.45;;;6.15;;
75320;SDS011;68337;52.196;5.660;2023-06-26T04:48:00;8.18;;;5.20;;
75320;SDS011;68337;52.196;5.660;2023-06-26T04:50:27;17.08;;;6.60;;
75320;SDS011;68337;52.196;5.660;2023-06-26T04:52:54;15.05;;;6.13;;
75320;SDS011;68337;52.196;5.660;2023-06-26T04:55:20;16.70;;;5.45;;
75320;SDS011;68337;52.196;5.660;2023-06-26T04:57:49;12.35;;;5.70;;
75320;SDS011;68337;52.196;5.660;2023-06-26T05:00:15;15.70;;;5.80;;
75320;SDS011;68337;52.196;5.660;2023-06-26T05:02:41;14.63;;;6.38;;
75320;SDS011;68337;52.196;5.660;2023-06-26T05:05:07;11.90;;;6.10;;
75320;SDS011;68337;52.196;5.660;2023-06-26T05:07:33;15.52;;;5.97;;
75320;SDS011;68337;52.196;5.660;2023-06-26T05:09:58;14.07;;;6.00;;
75320;SDS011;68337;52.196;5.660;2023-06-26T05:12:24;15.20;;;5.55;;
75320;SDS011;68337;52.196;5.660;2023-06-26T05:14:50;13.73;;;5.90;;
75320;SDS011;68337;52.196;5.660;2023-06-26T05:17:16;18.00;;;5.95;;
75320;SDS011;68337;52.196;5.660;2023-06-26T05:19:41;18.50;;;6.28;;
75320;SDS011;68337;52.196;5.660;2023-06-26T05:22:07;9.75;;;5.32;;
75320;SDS011;68337;52.196;5.660;2023-06-26T05:24:37;13.82;;;5.78;;
75320;SDS011;68337;52.196;5.660;2023-06-26T05:27:04;12.65;;;5.53;;
75320;SDS011;68337;52.196;5.660;2023-06-26T05:29:30;14.45;;;5.85;;
75320;SDS011;68337;52.196;5.660;2023-06-26T05:31:57;11.65;;;5.05;;
75320;SDS011;68337;52.196;5.660;2023-06-26T05:34:23;13.02;;;5.43;;
75320;SDS011;68337;52.196;5.660;2023-06-26T05:36:50;13.82;;;5.72;;
75320;SDS011;68337;52.196;5.660;2023-06-26T05:39:17;18.63;;;5.63;;
75320;SDS011;68337;52.196;5.660;2023-06-26T05:41:46;11.00;;;5.63;;
75320;SDS011;68337;52.196;5.660;2023-06-26T05:44:12;7.72;;;3.92;;
75320;SDS011;68337;52.196;5.660;2023-06-26T05:46:38;10.48;;;4.78;;
75320;SDS011;68337;52.196;5.660;2023-06-26T05:49:04;11.80;;;4.72;;
75320;SDS011;68337;52.196;5.660;2023-06-26T05:51:30;17.33;;;5.05;;
75320;SDS011;68337;52.196;5.660;2023-06-26T05:53:56;7.40;;;4.22;;
75320;SDS011;68337;52.196;5.660;2023-06-26T05:56:22;8.30;;;3.97;;
75320;SDS011;68337;52.196;5.660;2023-06-26T05:58:48;10.40;;;4.18;;
75320;SDS011;68337;52.196;5.660;2023-06-26T06:01:14;6.40;;;3.85;;
75320;SDS011;68337;52.196;5.660;2023-06-26T06:03:40;5.72;;;3.22;;
75320;SDS011;68337;52.196;5.660;2023-06-26T06:06:06;6.72;;;3.22;;
75320;SDS011;68337;52.196;5.660;2023-06-26T06:08:32;4.18;;;2.65;;
75320;SDS011;68337;52.196;5.660;2023-06-26T06:10:59;5.45;;;3.15;;
75320;SDS011;68337;52.196;5.660;2023-06-26T06:13:25;8.65;;;3.03;;
75320;SDS011;68337;52.196;5.660;2023-06-26T06:15:50;3.13;;;2.30;;
75320;SDS011;68337;52.196;5.660;2023-06-26T06:18:16;5.32;;;2.88;;
75320;SDS011;68337;52.196;5.660;2023-06-26T06:20:42;4.97;;;2.58;;
75320;SDS011;68337;52.196;5.660;2023-06-26T06:23:08;8.77;;;2.78;;
75320;SDS011;68337;52.196;5.660;2023-06-26T06:25:33;6.45;;;2.78;;
75320;SDS011;68337;52.196;5.660;2023-06-26T06:27:59;5.00;;;2.55;;
75320;SDS011;68337;52.196;5.660;2023-06-26T06:30:25;3.22;;;2.38;;
75320;SDS011;68337;52.196;5.660;2023-06-26T06:32:50;4.25;;;2.53;;
75320;SDS011;68337;52.196;5.660;2023-06-26T06:35:18;3.13;;;2.30;;
75320;SDS011;68337;52.196;5.660;2023-06-26T06:37:44;2.53;;;1.92;;
75320;SDS011;68337;52.196;5.660;2023-06-26T06:40:10;4.30;;;2.28;;
75320;SDS011;68337;52.196;5.660;2023-06-26T06:42:36;4.75;;;2.30;;
75320;SDS011;68337;52.196;5.660;2023-06-26T06:45:05;7.50;;;2.33;;
75320;SDS011;68337;52.196;5.660;2023-06-26T06:47:31;3.88;;;2.35;;
75320;SDS011;68337;52.196;5.660;2023-06-26T06:49:58;3.17;;;2.20;;
75320;SDS011;68337;52.196;5.660;2023-06-26T06:52:26;5.63;;;2.78;;
75320;SDS011;68337;52.196;5.660;2023-06-26T06:54:53;4.88;;;2.80;;
75320;SDS011;68337;52.196;5.660;2023-06-26T06:57:21;5.72;;;2.35;;
75320;SDS011;68337;52.196;5.660;2023-06-26T06:59:47;8.15;;;2.83;;
75320;SDS011;68337;52.196;5.660;2023-06-26T07:02:14;6.75;;;3.05;;
75320;SDS011;68337;52.196;5.660;2023-06-26T07:04:41;9.90;;;2.88;;
75320;SDS011;68337;52.196;5.660;2023-06-26T07:07:06;6.30;;;2.70;;
75320;SDS011;68337;52.196;5.660;2023-06-26T07:09:33;7.20;;;2.47;;
75320;SDS011;68337;52.196;5.660;2023-06-26T07:11:59;6.78;;;2.72;;
75320;SDS011;68337;52.196;5.660;2023-06-26T07:14:25;3.83;;;2.40;;
75320;SDS011;68337;52.196;5.660;2023-06-26T07:16:51;6.88;;;2.45;;
75320;SDS011;68337;52.196;5.660;2023-06-26T07:19:16;4.43;;;2.50;;
75320;SDS011;68337;52.196;5.660;2023-06-26T07:21:42;7.30;;;3.17;;
75320;SDS011;68337;52.196;5.660;2023-06-26T07:24:09;4.38;;;2.35;;
75320;SDS011;68337;52.196;5.660;2023-06-26T07:26:35;3.03;;;2.38;;
75320;SDS011;68337;52.196;5.660;2023-06-26T07:29:01;3.28;;;2.58;;
75320;SDS011;68337;52.196;5.660;2023-06-26T07:31:27;3.47;;;2.33;;
75320;SDS011;68337;52.196;5.660;2023-06-26T07:33:53;4.78;;;2.60;;
75320;SDS011;68337;52.196;5.660;2023-06-26T07:36:19;4.00;;;2.70;;
75320;SDS011;68337;52.196;5.660;2023-06-26T07:38:45;5.63;;;2.80;;
75320;SDS011;68337;52.196;5.660;2023-06-26T07:41:11;7.07;;;2.58;;
75320;SDS011;68337;52.196;5.660;2023-06-26T07:43:36;3.08;;;2.50;;
75320;SDS011;68337;52.196;5.660;2023-06-26T07:46:02;5.10;;;2.70;;
75320;SDS011;68337;52.196;5.660;2023-06-26T07:48:28;4.93;;;2.58;;
75320;SDS011;68337;52.196;5.660;2023-06-26T07:50:54;7.00;;;3.05;;
75320;SDS011;68337;52.196;5.660;2023-06-26T07:53:20;5.70;;;2.63;;
75320;SDS011;68337;52.196;5.660;2023-06-26T07:55:46;6.15;;;2.70;;
75320;SDS011;68337;52.196;5.660;2023-06-26T07:58:12;6.60;;;2.83;;
75320;SDS011;68337;52.196;5.660;2023-06-26T08:00:38;8.52;;;3.15;;
75320;SDS011;68337;52.196;5.660;2023-06-26T08:03:03;6.80;;;2.65;;
75320;SDS011;68337;52.196;5.660;2023-06-26T08:05:29;4.22;;;3.00;;
75320;SDS011;68337;52.196;5.660;2023-06-26T08:07:55;6.05;;;2.92;;
75320;SDS011;68337;52.196;5.660;2023-06-26T08:10:21;6.13;;;2.95;;
75320;SDS011;68337;52.196;5.660;2023-06-26T08:12:47;5.65;;;2.70;;
75320;SDS011;68337;52.196;5.660;2023-06-26T08:15:15;4.75;;;2.85;;
75320;SDS011;68337;52.196;5.660;2023-06-26T08:17:41;6.13;;;2.67;;
75320;SDS011;68337;52.196;5.660;2023-06-26T08:20:07;3.33;;;2.53;;
75320;SDS011;68337;52.196;5.660;2023-06-26T08:22:33;4.22;;;2.70;;
75320;SDS011;68337;52.196;5.660;2023-06-26T08:24:59;4.75;;;2.90;;
75320;SDS011;68337;52.196;5.660;2023-06-26T08:27:25;6.70;;;2.72;;
75320;SDS011;68337;52.196;5.660;2023-06-26T08:29:51;10.00;;;3.13;;
75320;SDS011;68337;52.196;5.660;2023-06-26T08:32:16;4.10;;;2.50;;
75320;SDS011;68337;52.196;5.660;2023-06-26T08:34:44;5.40;;;2.72;;
75320;SDS011;68337;52.196;5.660;2023-06-26T08:37:09;4.72;;;2.78;;
75320;SDS011;68337;52.196;5.660;2023-06-26T08:39:35;4.40;;;2.83;;
75320;SDS011;68337;52.196;5.660;2023-06-26T08:42:03;4.13;;;2.50;;
75320;SDS011;68337;52.196;5.660;2023-06-26T08:44:29;3.00;;;2.30;;
75320;SDS011;68337;52.196;5.660;2023-06-26T08:46:55;8.27;;;3.00;;
75320;SDS011;68337;52.196;5.660;2023-06-26T08:50:06;8.75;;;3.13;;
75320;SDS011;68337;52.196;5.660;2023-06-26T08:52:22;5.35;;;2.33;;
75320;SDS011;68337;52.196;5.660;2023-06-26T08:54:56;4.50;;;2.70;;
75320;SDS011;68337;52.196;5.660;2023-06-26T08:57:23;3.88;;;1.98;;
75320;SDS011;68337;52.196;5.660;2023-06-26T08:59:51;6.00;;;2.55;;
75320;SDS011;68337;52.196;5.660;2023-06-26T09:02:18;3.28;;;2.38;;
75320;SDS011;68337;52.196;5.660;2023-06-26T09:04:47;4.93;;;1.70;;
75320;SDS011;68337;52.196;5.660;2023-06-26T09:07:16;3.85;;;1.67;;
75320;SDS011;68337;52.196;5.660;2023-06-26T09:09:42;4.10;;;1.80;;
75320;SDS011;68337;52.196;5.660;2023-06-26T09:12:09;5.18;;;1.50;;
75320;SDS011;68337;52.196;5.660;2023-06-26T09:14:35;7.40;;;1.60;;
75320;SDS011;68337;52.196;5.660;2023-06-26T09:17:02;3.03;;;1.40;;
75320;SDS011;68337;52.196;5.660;2023-06-26T09:19:27;3.75;;;1.33;;
75320;SDS011;68337;52.196;5.660;2023-06-26T09:21:53;5.47;;;1.42;;
75320;SDS011;68337;52.196;5.660;2023-06-26T09:24:21;6.07;;;1.70;;
75320;SDS011;68337;52.196;5.660;2023-06-26T09:26:47;2.80;;;1.10;;
75320;SDS011;68337;52.196;5.660;2023-06-26T09:29:14;3.78;;;1.10;;
75320;SDS011;68337;52.196;5.660;2023-06-26T09:31:40;6.00;;;1.73;;
75320;SDS011;68337;52.196;5.660;2023-06-26T09:34:06;3.35;;;0.82;;
75320;SDS011;68337;52.196;5.660;2023-06-26T09:36:32;2.78;;;1.10;;
75320;SDS011;68337;52.196;5.660;2023-06-26T09:39:02;4.10;;;1.25;;
75320;SDS011;68337;52.196;5.660;2023-06-26T09:41:47;3.90;;;1.13;;
75320;SDS011;68337;52.196;5.660;2023-06-26T09:44:13;3.42;;;1.20;;
75320;SDS011;68337;52.196;5.660;2023-06-26T09:46:39;4.22;;;1.55;;
75320;SDS011;68337;52.196;5.660;2023-06-26T09:49:06;3.53;;;1.80;;
75320;SDS011;68337;52.196;5.660;2023-06-26T09:51:39;3.47;;;1.60;;
75320;SDS011;68337;52.196;5.660;2023-06-26T09:54:06;7.03;;;1.52;;
75320;SDS011;68337;52.196;5.660;2023-06-26T09:56:32;2.60;;;1.20;;
75320;SDS011;68337;52.196;5.660;2023-06-26T09:59:02;5.28;;;1.92;;
75320;SDS011;68337;52.196;5.660;2023-06-26T10:01:30;4.45;;;1.48;;
75320;SDS011;68337;52.196;5.660;2023-06-26T10:03:57;5.97;;;1.70;;
75320;SDS011;68337;52.196;5.660;2023-06-26T10:06:26;6.05;;;1.35;;
75320;SDS011;68337;52.196;5.660;2023-06-26T10:08:58;4.43;;;1.80;;
75320;SDS011;68337;52.196;5.660;2023-06-26T10:11:27;3.88;;;1.38;;
75320;SDS011;68337;52.196;5.660;2023-06-26T10:14:01;4.55;;;1.70;;
75320;SDS011;68337;52.196;5.660;2023-06-26T10:16:30;4.28;;;1.45;;
75320;SDS011;68337;52.196;5.660;2023-06-26T10:19:01;7.80;;;1.60;;
75320;SDS011;68337;52.196;5.660;2023-06-26T10:21:40;3.35;;;1.30;;
75320;SDS011;68337;52.196;5.660;2023-06-26T10:24:06;2.50;;;1.63;;
75320;SDS011;68337;52.196;5.660;2023-06-26T10:26:36;6.25;;;1.35;;
75320;SDS011;68337;52.196;5.660;2023-06-26T10:29:07;3.45;;;1.60;;
75320;SDS011;68337;52.196;5.660;2023-06-26T10:31:34;3.35;;;1.20;;
75320;SDS011;68337;52.196;5.660;2023-06-26T10:34:01;2.75;;;1.50;;
75320;SDS011;68337;52.196;5.660;2023-06-26T10:36:29;2.88;;;1.20;;
75320;SDS011;68337;52.196;5.660;2023-06-26T10:38:57;4.53;;;1.48;;
75320;SDS011;68337;52.196;5.660;2023-06-26T10:41:27;3.97;;;1.42;;
75320;SDS011;68337;52.196;5.660;2023-06-26T10:46:28;4.20;;;1.20;;
75320;SDS011;68337;52.196;5.660;2023-06-26T10:49:01;2.92;;;1.08;;
75320;SDS011;68337;52.196;5.660;2023-06-26T10:51:27;5.47;;;1.20;;
75320;SDS011;68337;52.196;5.660;2023-06-26T10:53:57;2.30;;;1.20;;
75320;SDS011;68337;52.196;5.660;2023-06-26T10:56:40;6.63;;;1.35;;
75320;SDS011;68337;52.196;5.660;2023-06-26T10:59:14;4.95;;;0.95;;
75320;SDS011;68337;52.196;5.660;2023-06-26T11:01:45;6.85;;;1.20;;
75320;SDS011;68337;52.196;5.660;2023-06-26T11:04:19;3.72;;;1.30;;
75320;SDS011;68337;52.196;5.660;2023-06-26T11:09:54;3.30;;;0.90;;
75320;SDS011;68337;52.196;5.660;2023-06-26T11:15:03;1.92;;;1.02;;
75320;SDS011;68337;52.196;5.660;2023-06-26T11:17:41;10.05;;;1.42;;
75320;SDS011;68337;52.196;5.660;2023-06-26T11:20:08;5.75;;;1.38;;
75320;SDS011;68337;52.196;5.660;2023-06-26T11:22:36;7.22;;;0.98;;
75320;SDS011;68337;52.196;5.660;2023-06-26T11:25:03;6.50;;;1.17;;
75320;SDS011;68337;52.196;5.660;2023-06-26T11:27:31;3.55;;;0.85;;
75320;SDS011;68337;52.196;5.660;2023-06-26T11:30:05;4.63;;;0.95;;
75320;SDS011;68337;52.196;5.660;2023-06-26T11:32:32;4.18;;;1.25;;
75320;SDS011;68337;52.196;5.660;2023-06-26T11:34:58;3.30;;;0.90;;
75320;SDS011;68337;52.196;5.660;2023-06-26T11:37:24;7.30;;;1.10;;
75320;SDS011;68337;52.196;5.660;2023-06-26T11:39:50;1.92;;;0.80;;
75320;SDS011;68337;52.196;5.660;2023-06-26T11:42:17;3.22;;;1.17;;
75320;SDS011;68337;52.196;5.660;2023-06-26T11:44:44;1.55;;;0.88;;
75320;SDS011;68337;52.196;5.660;2023-06-26T11:47:20;1.58;;;0.82;;
75320;SDS011;68337;52.196;5.660;2023-06-26T11:49:47;3.28;;;1.02;;
75320;SDS011;68337;52.196;5.660;2023-06-26T11:52:14;1.83;;;0.95;;
75320;SDS011;68337;52.196;5.660;2023-06-26T11:54:41;1.95;;;1.08;;
75320;SDS011;68337;52.196;5.660;2023-06-26T11:57:08;5.50;;;1.10;;
75320;SDS011;68337;52.196;5.660;2023-06-26T11:59:39;2.08;;;0.90;;
75320;SDS011;68337;52.196;5.660;2023-06-26T12:02:09;1.52;;;1.00;;
75320;SDS011;68337;52.196;5.660;2023-06-26T12:04:38;3.05;;;1.08;;
75320;SDS011;68337;52.196;5.660;2023-06-26T12:07:09;4.47;;;0.90;;
75320;SDS011;68337;52.196;5.660;2023-06-26T12:09:39;2.03;;;1.00;;
75320;SDS011;68337;52.196;5.660;2023-06-26T12:12:08;4.47;;;1.27;;
75320;SDS011;68337;52.196;5.660;2023-06-26T12:14:39;3.72;;;1.20;;
75320;SDS011;68337;52.196;5.660;2023-06-26T12:17:10;5.55;;;1.00;;
75320;SDS011;68337;52.196;5.660;2023-06-26T12:19:39;3.90;;;1.17;;
75320;SDS011;68337;52.196;5.660;2023-06-26T12:22:08;2.20;;;1.08;;
75320;SDS011;68337;52.196;5.660;2023-06-26T12:24:36;4.72;;;0.88;;
75320;SDS011;68337;52.196;5.660;2023-06-26T12:27:07;0.95;;;0.88;;
75320;SDS011;68337;52.196;5.660;2023-06-26T12:29:34;3.03;;;0.75;;
75320;SDS011;68337;52.196;5.660;2023-06-26T12:32:01;2.47;;;0.70;;
75320;SDS011;68337;52.196;5.660;2023-06-26T12:34:28;3.10;;;0.80;;
75320;SDS011;68337;52.196;5.660;2023-06-26T12:37:02;2.65;;;0.60;;
75320;SDS011;68337;52.196;5.660;2023-06-26T12:39:29;2.80;;;0.77;;
75320;SDS011;68337;52.196;5.660;2023-06-26T12:42:09;2.05;;;0.85;;
75320;SDS011;68337;52.196;5.660;2023-06-26T12:44:39;7.20;;;0.90;;
75320;SDS011;68337;52.196;5.660;2023-06-26T12:47:05;5.18;;;0.85;;
75320;SDS011;68337;52.196;5.660;2023-06-26T12:49:36;1.67;;;0.63;;
75320;SDS011;68337;52.196;5.660;2023-06-26T12:52:04;2.63;;;1.05;;
75320;SDS011;68337;52.196;5.660;2023-06-26T12:54:32;4.15;;;0.80;;
75320;SDS011;68337;52.196;5.660;2023-06-26T12:56:59;2.42;;;1.00;;
75320;SDS011;68337;52.196;5.660;2023-06-26T12:59:25;2.50;;;1.10;;
75320;SDS011;68337;52.196;5.660;2023-06-26T13:01:51;2.28;;;0.88;;
75320;SDS011;68337;52.196;5.660;2023-06-26T13:04:18;3.78;;;1.10;;
75320;SDS011;68337;52.196;5.660;2023-06-26T13:06:44;4.65;;;1.27;;
75320;SDS011;68337;52.196;5.660;2023-06-26T13:09:15;5.68;;;1.08;;
75320;SDS011;68337;52.196;5.660;2023-06-26T13:11:41;5.07;;;0.80;;
75320;SDS011;68337;52.196;5.660;2023-06-26T13:14:07;5.53;;;0.77;;
75320;SDS011;68337;52.196;5.660;2023-06-26T13:16:34;2.88;;;0.95;;
75320;SDS011;68337;52.196;5.660;2023-06-26T13:19:01;2.13;;;0.68;;
75320;SDS011;68337;52.196;5.660;2023-06-26T13:21:28;2.35;;;1.27;;
75320;SDS011;68337;52.196;5.660;2023-06-26T13:23:54;5.45;;;1.10;;
75320;SDS011;68337;52.196;5.660;2023-06-26T13:26:26;2.72;;;0.98;;
75320;SDS011;68337;52.196;5.660;2023-06-26T13:28:55;2.00;;;0.88;;
75320;SDS011;68337;52.196;5.660;2023-06-26T13:31:21;2.70;;;0.90;;
75320;SDS011;68337;52.196;5.660;2023-06-26T13:33:47;3.33;;;0.70;;
75320;SDS011;68337;52.196;5.660;2023-06-26T13:36:19;3.33;;;1.17;;
75320;SDS011;68337;52.196;5.660;2023-06-26T13:38:46;2.25;;;0.80;;
75320;SDS011;68337;52.196;5.660;2023-06-26T13:41:13;2.38;;;1.23;;
75320;SDS011;68337;52.196;5.660;2023-06-26T13:43:38;5.65;;;0.80;;
75320;SDS011;68337;52.196;5.660;2023-06-26T13:46:04;4.13;;;0.90;;
75320;SDS011;68337;52.196;5.660;2023-06-26T13:48:30;8.05;;;1.00;;
75320;SDS011;68337;52.196;5.660;2023-06-26T13:50:56;2.63;;;0.75;;
75320;SDS011;68337;52.196;5.660;2023-06-26T13:53:23;3.30;;;1.00;;
75320;SDS011;68337;52.196;5.660;2023-06-26T13:55:49;6.53;;;1.00;;
75320;SDS011;68337;52.196;5.660;2023-06-26T13:58:15;3.55;;;0.90;;
75320;SDS011;68337;52.196;5.660;2023-06-26T14:00:40;1.45;;;0.80;;
75320;SDS011;68337;52.196;5.660;2023-06-26T14:03:09;4.28;;;1.33;;
75320;SDS011;68337;52.196;5.660;2023-06-26T14:05:35;3.58;;;0.80;;
75320;SDS011;68337;52.196;5.660;2023-06-26T14:08:03;3.55;;;1.13;;
75320;SDS011;68337;52.196;5.660;2023-06-26T14:10:29;2.50;;;1.00;;
75320;SDS011;68337;52.196;5.660;2023-06-26T14:12:56;6.35;;;1.33;;
75320;SDS011;68337;52.196;5.660;2023-06-26T14:15:22;3.83;;;1.35;;
75320;SDS011;68337;52.196;5.660;2023-06-26T14:17:48;2.22;;;0.80;;
75320;SDS011;68337;52.196;5.660;2023-06-26T14:20:15;2.28;;;0.90;;
75320;SDS011;68337;52.196;5.660;2023-06-26T14:22:42;2.35;;;0.90;;
75320;SDS011;68337;52.196;5.660;2023-06-26T14:25:11;2.97;;;1.08;;
75320;SDS011;68337;52.196;5.660;2023-06-26T14:27:38;3.33;;;1.20;;
75320;SDS011;68337;52.196;5.660;2023-06-26T14:30:04;3.20;;;1.05;;
75320;SDS011;68337;52.196;5.660;2023-06-26T14:32:31;1.75;;;0.90;;
75320;SDS011;68337;52.196;5.660;2023-06-26T14:34:57;4.13;;;1.30;;
75320;SDS011;68337;52.196;5.660;2023-06-26T14:37:23;6.15;;;1.30;;
75320;SDS011;68337;52.196;5.660;2023-06-26T14:39:50;1.35;;;0.68;;
75320;SDS011;68337;52.196;5.660;2023-06-26T14:42:15;3.53;;;0.98;;
75320;SDS011;68337;52.196;5.660;2023-06-26T14:44:41;2.95;;;1.10;;
75320;SDS011;68337;52.196;5.660;2023-06-26T14:47:07;1.90;;;1.00;;
75320;SDS011;68337;52.196;5.660;2023-06-26T14:49:33;4.05;;;1.13;;
75320;SDS011;68337;52.196;5.660;2023-06-26T14:51:58;2.85;;;0.80;;